sensor_id;sensor_type;location;lat;lon;timestamp;pressure;altitude;pressure_sealevel;temperature;humidity
75039;BME280;63609;49.992;14.512;2023-05-08T00:03:29;98802.66;;;4.29;62.73
75039;BME280;63609;49.992;14.512;2023-05-08T00:05:57;98803.00;;;4.51;61.80
75039;BME280;63609;49.992;14.512;2023-05-08T00:08:25;98786.66;;;4.59;60.92
75039;BME280;63609;49.992;14.512;2023-05-08T00:10:52;98793.94;;;4.70;60.94
75039;BME280;63609;49.992;14.512;2023-05-08T00:13:20;98789.50;;;4.70;60.44
75039;BME280;63609;49.992;14.512;2023-05-08T00:15:50;98796.44;;;4.85;60.10
75039;BME280;63609;49.992;14.512;2023-05-08T00:18:17;98801.00;;;4.83;60.06
75039;BME280;63609;49.992;14.512;2023-05-08T00:20:45;98789.66;;;4.81;59.72
75039;BME280;63609;49.992;14.512;2023-05-08T00:23:12;98788.56;;;4.71;60.53
75039;BME280;63609;49.992;14.512;2023-05-08T00:25:39;98785.88;;;4.85;59.92
75039;BME280;63609;49.992;14.512;2023-05-08T00:28:08;98784.25;;;4.83;59.59
75039;BME280;63609;49.992;14.512;2023-05-08T00:30:37;98782.06;;;4.90;59.41
75039;BME280;63609;49.992;14.512;2023-05-08T00:33:04;98787.59;;;4.72;59.79
75039;BME280;63609;49.992;14.512;2023-05-08T00:35:32;98785.75;;;4.87;59.38
75039;BME280;63609;49.992;14.512;2023-05-08T00:37:59;98786.56;;;4.75;59.11
75039;BME280;63609;49.992;14.512;2023-05-08T00:40:29;98790.59;;;4.80;59.33
75039;BME280;63609;49.992;14.512;2023-05-08T00:42:57;98799.13;;;4.71;59.49
75039;BME280;63609;49.992;14.512;2023-05-08T00:45:32;98792.44;;;4.66;59.83
75039;BME280;63609;49.992;14.512;2023-05-08T00:48:01;98797.78;;;4.78;59.67
75039;BME280;63609;49.992;14.512;2023-05-08T00:50:31;98795.72;;;4.69;59.23
75039;BME280;63609;49.992;14.512;2023-05-08T00:53:01;98793.38;;;4.65;59.23
75039;BME280;63609;49.992;14.512;2023-05-08T00:55:31;98789.50;;;4.56;59.74
75039;BME280;63609;49.992;14.512;2023-05-08T00:57:59;98797.53;;;4.40;59.99
75039;BME280;63609;49.992;14.512;2023-05-08T01:00:26;98805.09;;;4.61;59.92
75039;BME280;63609;49.992;14.512;2023-05-08T01:02:55;98803.56;;;4.57;59.92
75039;BME280;63609;49.992;14.512;2023-05-08T01:05:28;98817.09;;;4.38;60.81
75039;BME280;63609;49.992;14.512;2023-05-08T01:07:56;98806.31;;;4.41;60.31
75039;BME280;63609;49.992;14.512;2023-05-08T01:10:32;98813.03;;;4.46;60.13
75039;BME280;63609;49.992;14.512;2023-05-08T01:13:21;98806.41;;;4.39;60.00
75039;BME280;63609;49.992;14.512;2023-05-08T01:16:16;98818.41;;;4.31;60.48
75039;BME280;63609;49.992;14.512;2023-05-08T01:22:08;98819.13;;;4.18;61.07
75039;BME280;63609;49.992;14.512;2023-05-08T01:30:18;98819.44;;;4.28;61.07
75039;BME280;63609;49.992;14.512;2023-05-08T01:33:01;98818.28;;;4.18;61.09
75039;BME280;63609;49.992;14.512;2023-05-08T01:35:48;98817.25;;;4.06;61.38
75039;BME280;63609;49.992;14.512;2023-05-08T01:38:46;98818.56;;;3.99;61.99
75039;BME280;63609;49.992;14.512;2023-05-08T01:41:25;98809.78;;;3.99;61.81
75039;BME280;63609;49.992;14.512;2023-05-08T01:44:13;98823.94;;;4.12;61.09
75039;BME280;63609;49.992;14.512;2023-05-08T01:46:49;98815.75;;;4.02;61.30
75039;BME280;63609;49.992;14.512;2023-05-08T01:49:24;98823.84;;;4.13;60.57
75039;BME280;63609;49.992;14.512;2023-05-08T01:51:58;98820.28;;;4.14;60.83
75039;BME280;63609;49.992;14.512;2023-05-08T01:54:31;98826.13;;;4.05;60.66
75039;BME280;63609;49.992;14.512;2023-05-08T01:57:00;98822.44;;;4.08;60.47
75039;BME280;63609;49.992;14.512;2023-05-08T01:59:31;98824.09;;;3.95;61.07
75039;BME280;63609;49.992;14.512;2023-05-08T02:02:02;98822.63;;;4.05;60.87
75039;BME280;63609;49.992;14.512;2023-05-08T02:04:31;98825.88;;;3.94;61.04
75039;BME280;63609;49.992;14.512;2023-05-08T02:07:06;98817.34;;;4.05;60.43
75039;BME280;63609;49.992;14.512;2023-05-08T02:09:34;98811.09;;;3.76;61.56
75039;BME280;63609;49.992;14.512;2023-05-08T02:12:02;98827.69;;;3.93;60.85
75039;BME280;63609;49.992;14.512;2023-05-08T02:14:33;98831.16;;;3.94;60.85
75039;BME280;63609;49.992;14.512;2023-05-08T02:17:02;98823.78;;;3.85;61.21
75039;BME280;63609;49.992;14.512;2023-05-08T02:19:33;98829.09;;;3.85;61.01
75039;BME280;63609;49.992;14.512;2023-05-08T02:22:03;98824.66;;;3.85;60.98
75039;BME280;63609;49.992;14.512;2023-05-08T02:24:32;98814.75;;;3.89;60.26
75039;BME280;63609;49.992;14.512;2023-05-08T02:27:02;98817.56;;;3.86;59.60
75039;BME280;63609;49.992;14.512;2023-05-08T02:29:30;98827.34;;;3.54;59.50
75039;BME280;63609;49.992;14.512;2023-05-08T02:32:00;98826.50;;;3.53;60.67
75039;BME280;63609;49.992;14.512;2023-05-08T02:34:29;98820.06;;;3.43;60.41
75039;BME280;63609;49.992;14.512;2023-05-08T02:36:58;98829.09;;;3.39;59.57
75039;BME280;63609;49.992;14.512;2023-05-08T02:39:29;98829.53;;;3.32;59.57
75039;BME280;63609;49.992;14.512;2023-05-08T02:41:57;98827.03;;;3.28;58.79
75039;BME280;63609;49.992;14.512;2023-05-08T02:44:24;98839.06;;;3.34;59.02
75039;BME280;63609;49.992;14.512;2023-05-08T02:46:56;98827.88;;;3.29;58.59
75039;BME280;63609;49.992;14.512;2023-05-08T02:49:43;98841.88;;;3.15;58.74
75039;BME280;63609;49.992;14.512;2023-05-08T02:52:17;98841.53;;;3.06;59.58
75039;BME280;63609;49.992;14.512;2023-05-08T02:55:13;98844.25;;;3.20;59.05
75039;BME280;63609;49.992;14.512;2023-05-08T03:00:31;98849.09;;;3.27;60.47
75039;BME280;63609;49.992;14.512;2023-05-08T03:03:07;98847.91;;;3.17;61.79
75039;BME280;63609;49.992;14.512;2023-05-08T03:05:46;98842.97;;;3.27;60.31
75039;BME280;63609;49.992;14.512;2023-05-08T03:08:19;98849.25;;;3.40;61.05
75039;BME280;63609;49.992;14.512;2023-05-08T03:10:51;98839.47;;;3.42;61.06
75039;BME280;63609;49.992;14.512;2023-05-08T03:13:20;98845.28;;;3.33;60.03
75039;BME280;63609;49.992;14.512;2023-05-08T03:15:59;98847.81;;;3.19;58.40
75039;BME280;63609;49.992;14.512;2023-05-08T03:18:35;98848.16;;;3.13;57.62
75039;BME280;63609;49.992;14.512;2023-05-08T03:21:08;98850.03;;;2.79;58.20
75039;BME280;63609;49.992;14.512;2023-05-08T03:23:39;98840.59;;;2.75;58.07
75039;BME280;63609;49.992;14.512;2023-05-08T03:26:16;98838.75;;;2.60;59.82
75039;BME280;63609;49.992;14.512;2023-05-08T03:28:49;98844.00;;;2.77;60.10
75039;BME280;63609;49.992;14.512;2023-05-08T03:31:21;98848.50;;;2.91;60.59
75039;BME280;63609;49.992;14.512;2023-05-08T03:33:54;98849.88;;;2.98;61.05
75039;BME280;63609;49.992;14.512;2023-05-08T03:36:25;98850.41;;;3.05;61.40
75039;BME280;63609;49.992;14.512;2023-05-08T03:38:55;98848.44;;;3.08;61.44
75039;BME280;63609;49.992;14.512;2023-05-08T03:41:26;98853.44;;;3.13;60.65
75039;BME280;63609;49.992;14.512;2023-05-08T03:43:55;98858.81;;;3.11;61.29
75039;BME280;63609;49.992;14.512;2023-05-08T03:46:24;98864.25;;;3.24;60.83
75039;BME280;63609;49.992;14.512;2023-05-08T03:48:56;98865.78;;;3.28;59.89
75039;BME280;63609;49.992;14.512;2023-05-08T03:51:28;98863.25;;;3.11;60.91
75039;BME280;63609;49.992;14.512;2023-05-08T03:53:59;98860.09;;;3.36;60.91
75039;BME280;63609;49.992;14.512;2023-05-08T03:56:28;98865.00;;;3.42;60.20
75039;BME280;63609;49.992;14.512;2023-05-08T03:59:10;98860.66;;;3.25;60.85
75039;BME280;63609;49.992;14.512;2023-05-08T04:01:52;98867.31;;;3.32;61.40
75039;BME280;63609;49.992;14.512;2023-05-08T04:04:44;98876.94;;;3.33;61.62
75039;BME280;63609;49.992;14.512;2023-05-08T04:07:29;98864.91;;;3.27;60.77
75039;BME280;63609;49.992;14.512;2023-05-08T04:10:23;98873.34;;;3.18;61.64
75039;BME280;63609;49.992;14.512;2023-05-08T04:15:48;98870.81;;;3.33;61.37
75039;BME280;63609;49.992;14.512;2023-05-08T04:18:24;98866.63;;;3.44;61.40
75039;BME280;63609;49.992;14.512;2023-05-08T04:20:59;98869.19;;;3.46;61.70
75039;BME280;63609;49.992;14.512;2023-05-08T04:23:30;98883.31;;;3.45;62.23
75039;BME280;63609;49.992;14.512;2023-05-08T04:26:02;98884.16;;;3.29;62.83
75039;BME280;63609;49.992;14.512;2023-05-08T04:28:32;98885.41;;;3.54;61.95
75039;BME280;63609;49.992;14.512;2023-05-08T04:31:02;98889.41;;;3.77;61.42
75039;BME280;63609;49.992;14.512;2023-05-08T04:33:34;98891.00;;;3.95;61.40
75039;BME280;63609;49.992;14.512;2023-05-08T04:36:03;98899.69;;;3.97;61.22
75039;BME280;63609;49.992;14.512;2023-05-08T04:38:35;98884.63;;;4.13;60.91
75039;BME280;63609;49.992;14.512;2023-05-08T04:41:07;98884.00;;;4.24;60.87
75039;BME280;63609;49.992;14.512;2023-05-08T04:43:36;98891.22;;;4.06;60.90
75039;BME280;63609;49.992;14.512;2023-05-08T04:46:07;98888.22;;;4.12;61.33
75039;BME280;63609;49.992;14.512;2023-05-08T04:48:35;98887.47;;;4.24;60.93
75039;BME280;63609;49.992;14.512;2023-05-08T04:51:03;98905.97;;;4.24;61.19
75039;BME280;63609;49.992;14.512;2023-05-08T04:53:31;98910.97;;;4.15;61.30
75039;BME280;63609;49.992;14.512;2023-05-08T04:56:01;98909.13;;;4.31;61.08
75039;BME280;63609;49.992;14.512;2023-05-08T04:58:29;98895.84;;;4.47;60.69
75039;BME280;63609;49.992;14.512;2023-05-08T05:01:01;98909.44;;;4.55;60.63
75039;BME280;63609;49.992;14.512;2023-05-08T05:03:31;98902.56;;;4.67;60.90
75039;BME280;63609;49.992;14.512;2023-05-08T05:06:00;98900.97;;;4.78;60.43
75039;BME280;63609;49.992;14.512;2023-05-08T05:08:30;98901.78;;;5.07;59.54
75039;BME280;63609;49.992;14.512;2023-05-08T05:10:59;98904.72;;;5.03;59.56
75039;BME280;63609;49.992;14.512;2023-05-08T05:13:28;98907.72;;;5.25;59.17
75039;BME280;63609;49.992;14.512;2023-05-08T05:16:01;98907.06;;;5.22;59.51
75039;BME280;63609;49.992;14.512;2023-05-08T05:18:30;98916.25;;;5.57;58.83
75039;BME280;63609;49.992;14.512;2023-05-08T05:21:01;98906.50;;;5.72;58.49
75039;BME280;63609;49.992;14.512;2023-05-08T05:23:31;98913.09;;;5.79;57.62
75039;BME280;63609;49.992;14.512;2023-05-08T05:26:02;98912.38;;;5.63;57.87
75039;BME280;63609;49.992;14.512;2023-05-08T05:28:31;98914.09;;;5.91;57.89
75039;BME280;63609;49.992;14.512;2023-05-08T05:31:02;98908.63;;;6.06;56.62
75039;BME280;63609;49.992;14.512;2023-05-08T05:33:31;98908.94;;;6.02;56.84
75039;BME280;63609;49.992;14.512;2023-05-08T05:36:00;98913.81;;;6.08;56.97
75039;BME280;63609;49.992;14.512;2023-05-08T05:38:30;98916.38;;;6.09;56.78
75039;BME280;63609;49.992;14.512;2023-05-08T05:41:04;98916.09;;;6.27;56.52
75039;BME280;63609;49.992;14.512;2023-05-08T05:43:32;98910.06;;;6.50;55.65
75039;BME280;63609;49.992;14.512;2023-05-08T05:46:07;98919.97;;;6.61;55.78
75039;BME280;63609;49.992;14.512;2023-05-08T05:48:38;98913.25;;;6.55;55.59
75039;BME280;63609;49.992;14.512;2023-05-08T05:51:10;98915.34;;;6.25;56.16
75039;BME280;63609;49.992;14.512;2023-05-08T05:53:42;98912.00;;;6.61;55.29
75039;BME280;63609;49.992;14.512;2023-05-08T05:56:12;98914.22;;;6.80;55.01
75039;BME280;63609;49.992;14.512;2023-05-08T05:58:40;98912.41;;;6.93;55.07
75039;BME280;63609;49.992;14.512;2023-05-08T06:01:13;98918.22;;;7.11;54.34
75039;BME280;63609;49.992;14.512;2023-05-08T06:03:42;98920.72;;;6.88;54.58
75039;BME280;63609;49.992;14.512;2023-05-08T06:06:11;98914.19;;;7.05;54.65
75039;BME280;63609;49.992;14.512;2023-05-08T06:08:41;98917.56;;;7.20;54.00
75039;BME280;63609;49.992;14.512;2023-05-08T06:11:12;98923.94;;;7.43;53.61
75039;BME280;63609;49.992;14.512;2023-05-08T06:13:40;98919.84;;;7.50;53.89
75039;BME280;63609;49.992;14.512;2023-05-08T06:16:09;98916.13;;;7.52;53.48
75039;BME280;63609;49.992;14.512;2023-05-08T06:18:40;98919.66;;;7.77;52.35
75039;BME280;63609;49.992;14.512;2023-05-08T06:21:09;98929.84;;;8.07;52.48
75039;BME280;63609;49.992;14.512;2023-05-08T06:23:38;98921.81;;;7.95;51.80
75039;BME280;63609;49.992;14.512;2023-05-08T06:26:10;98913.28;;;8.03;52.53
75039;BME280;63609;49.992;14.512;2023-05-08T06:28:41;98913.34;;;7.67;53.04
75039;BME280;63609;49.992;14.512;2023-05-08T06:31:11;98902.97;;;7.99;51.58
75039;BME280;63609;49.992;14.512;2023-05-08T06:33:39;98921.88;;;8.07;52.12
75039;BME280;63609;49.992;14.512;2023-05-08T06:36:08;98924.41;;;8.08;52.30
75039;BME280;63609;49.992;14.512;2023-05-08T06:38:37;98920.13;;;8.18;51.00
75039;BME280;63609;49.992;14.512;2023-05-08T06:41:05;98922.81;;;8.41;51.35
75039;BME280;63609;49.992;14.512;2023-05-08T06:43:33;98912.06;;;8.88;49.85
75039;BME280;63609;49.992;14.512;2023-05-08T06:46:01;98923.81;;;8.16;50.89
75039;BME280;63609;49.992;14.512;2023-05-08T06:48:39;98923.06;;;8.73;50.48
75039;BME280;63609;49.992;14.512;2023-05-08T06:51:11;98922.28;;;8.59;49.92
75039;BME280;63609;49.992;14.512;2023-05-08T06:53:40;98926.56;;;8.38;51.87
75039;BME280;63609;49.992;14.512;2023-05-08T06:56:11;98927.69;;;9.04;50.37
75039;BME280;63609;49.992;14.512;2023-05-08T06:58:39;98927.44;;;9.52;48.89
75039;BME280;63609;49.992;14.512;2023-05-08T07:01:07;98923.19;;;9.49;48.51
75039;BME280;63609;49.992;14.512;2023-05-08T07:03:38;98925.97;;;9.59;48.21
75039;BME280;63609;49.992;14.512;2023-05-08T07:06:09;98919.44;;;9.52;48.91
75039;BME280;63609;49.992;14.512;2023-05-08T07:08:39;98921.59;;;9.58;47.45
75039;BME280;63609;49.992;14.512;2023-05-08T07:11:07;98919.34;;;9.86;46.74
75039;BME280;63609;49.992;14.512;2023-05-08T07:13:37;98922.84;;;10.29;47.57
75039;BME280;63609;49.992;14.512;2023-05-08T07:16:09;98920.59;;;9.81;47.12
75039;BME280;63609;49.992;14.512;2023-05-08T07:18:38;98930.63;;;9.78;47.22
75039;BME280;63609;49.992;14.512;2023-05-08T07:21:13;98925.41;;;9.99;45.98
75039;BME280;63609;49.992;14.512;2023-05-08T07:23:42;98924.94;;;10.67;45.73
75039;BME280;63609;49.992;14.512;2023-05-08T07:26:12;98926.25;;;10.52;45.96
75039;BME280;63609;49.992;14.512;2023-05-08T07:28:49;98931.16;;;10.47;45.83
75039;BME280;63609;49.992;14.512;2023-05-08T07:31:18;98924.47;;;10.21;46.06
75039;BME280;63609;49.992;14.512;2023-05-08T07:33:50;98923.97;;;10.68;45.71
75039;BME280;63609;49.992;14.512;2023-05-08T07:36:20;98924.84;;;10.48;44.93
75039;BME280;63609;49.992;14.512;2023-05-08T07:38:49;98928.97;;;10.41;45.51
75039;BME280;63609;49.992;14.512;2023-05-08T07:41:17;98927.81;;;10.55;45.82
75039;BME280;63609;49.992;14.512;2023-05-08T07:43:44;98923.44;;;10.74;44.40
75039;BME280;63609;49.992;14.512;2023-05-08T07:46:16;98907.31;;;10.55;44.95
75039;BME280;63609;49.992;14.512;2023-05-08T07:48:44;98926.91;;;10.65;44.94
75039;BME280;63609;49.992;14.512;2023-05-08T07:51:13;98919.47;;;10.90;44.93
75039;BME280;63609;49.992;14.512;2023-05-08T07:53:42;98917.06;;;10.87;43.37
75039;BME280;63609;49.992;14.512;2023-05-08T07:56:10;98913.34;;;11.29;42.50
75039;BME280;63609;49.992;14.512;2023-05-08T07:58:39;98920.50;;;11.29;42.26
75039;BME280;63609;49.992;14.512;2023-05-08T08:01:09;98915.41;;;11.56;42.64
75039;BME280;63609;49.992;14.512;2023-05-08T08:03:36;98925.38;;;11.14;42.32
75039;BME280;63609;49.992;14.512;2023-05-08T08:06:04;98925.41;;;11.74;41.85
75039;BME280;63609;49.992;14.512;2023-05-08T08:08:32;98924.44;;;11.25;41.79
75039;BME280;63609;49.992;14.512;2023-05-08T08:11:00;98928.22;;;11.62;41.67
75039;BME280;63609;49.992;14.512;2023-05-08T08:13:33;98923.53;;;12.14;41.45
75039;BME280;63609;49.992;14.512;2023-05-08T08:16:03;98931.16;;;12.19;40.20
75039;BME280;63609;49.992;14.512;2023-05-08T08:18:33;98917.47;;;12.32;39.06
75039;BME280;63609;49.992;14.512;2023-05-08T08:21:06;98921.41;;;12.66;39.81
75039;BME280;63609;49.992;14.512;2023-05-08T08:23:35;98920.31;;;12.49;40.57
75039;BME280;63609;49.992;14.512;2023-05-08T08:26:07;98918.84;;;12.65;39.53
75039;BME280;63609;49.992;14.512;2023-05-08T08:28:35;98905.56;;;12.73;38.96
75039;BME280;63609;49.992;14.512;2023-05-08T08:31:03;98912.81;;;12.63;38.34
75039;BME280;63609;49.992;14.512;2023-05-08T08:33:31;98916.41;;;12.90;38.69
75039;BME280;63609;49.992;14.512;2023-05-08T08:35:58;98920.34;;;12.96;38.92
75039;BME280;63609;49.992;14.512;2023-05-08T08:38:26;98918.84;;;12.65;39.77
75039;BME280;63609;49.992;14.512;2023-05-08T08:40:57;98911.00;;;13.19;37.77
75039;BME280;63609;49.992;14.512;2023-05-08T08:43:28;98910.56;;;12.58;38.28
75039;BME280;63609;49.992;14.512;2023-05-08T08:45:56;98910.22;;;12.90;37.63
75039;BME280;63609;49.992;14.512;2023-05-08T08:48:27;98919.81;;;12.73;38.00
75039;BME280;63609;49.992;14.512;2023-05-08T08:50:59;98924.75;;;13.34;37.56
75039;BME280;63609;49.992;14.512;2023-05-08T08:53:41;98919.06;;;13.47;37.17
75039;BME280;63609;49.992;14.512;2023-05-08T08:56:11;98903.97;;;13.36;36.54
75039;BME280;63609;49.992;14.512;2023-05-08T08:58:48;98910.69;;;13.22;36.44
75039;BME280;63609;49.992;14.512;2023-05-08T09:01:19;98912.75;;;14.01;35.39
75039;BME280;63609;49.992;14.512;2023-05-08T09:03:50;98916.25;;;14.29;34.66
75039;BME280;63609;49.992;14.512;2023-05-08T09:06:19;98910.16;;;13.92;34.36
75039;BME280;63609;49.992;14.512;2023-05-08T09:08:50;98905.63;;;14.63;35.21
75039;BME280;63609;49.992;14.512;2023-05-08T09:11:21;98905.66;;;14.10;34.71
75039;BME280;63609;49.992;14.512;2023-05-08T09:13:49;98904.19;;;13.98;34.92
75039;BME280;63609;49.992;14.512;2023-05-08T09:16:17;98906.03;;;14.33;34.98
75039;BME280;63609;49.992;14.512;2023-05-08T09:18:50;98904.19;;;14.69;34.95
75039;BME280;63609;49.992;14.512;2023-05-08T09:21:20;98910.84;;;14.65;33.76
75039;BME280;63609;49.992;14.512;2023-05-08T09:24:04;98911.19;;;14.88;33.35
75039;BME280;63609;49.992;14.512;2023-05-08T09:26:34;98909.91;;;15.00;33.48
75039;BME280;63609;49.992;14.512;2023-05-08T09:31:40;98911.53;;;15.11;32.93
75039;BME280;63609;49.992;14.512;2023-05-08T09:34:25;98909.78;;;14.58;34.18
75039;BME280;63609;49.992;14.512;2023-05-08T09:37:10;98906.41;;;15.33;32.72
75039;BME280;63609;49.992;14.512;2023-05-08T09:39:37;98903.84;;;15.66;31.71
75039;BME280;63609;49.992;14.512;2023-05-08T09:42:10;98902.28;;;15.47;32.14
75039;BME280;63609;49.992;14.512;2023-05-08T09:44:49;98905.88;;;15.64;32.25
75039;BME280;63609;49.992;14.512;2023-05-08T09:47:22;98897.34;;;15.85;33.13
75039;BME280;63609;49.992;14.512;2023-05-08T09:50:07;98907.16;;;15.94;32.41
75039;BME280;63609;49.992;14.512;2023-05-08T09:52:36;98904.50;;;16.18;31.34
75039;BME280;63609;49.992;14.512;2023-05-08T09:55:09;98893.34;;;15.97;31.62
75039;BME280;63609;49.992;14.512;2023-05-08T09:57:39;98901.25;;;15.90;32.01
75039;BME280;63609;49.992;14.512;2023-05-08T10:00:09;98889.88;;;16.45;31.95
75039;BME280;63609;49.992;14.512;2023-05-08T10:02:53;98900.97;;;16.02;31.95
75039;BME280;63609;49.992;14.512;2023-05-08T10:05:25;98896.78;;;16.40;30.70
75039;BME280;63609;49.992;14.512;2023-05-08T10:07:54;98890.38;;;16.65;30.83
75039;BME280;63609;49.992;14.512;2023-05-08T10:10:28;98889.00;;;16.93;30.85
75039;BME280;63609;49.992;14.512;2023-05-08T10:12:57;98894.09;;;16.72;29.15
75039;BME280;63609;49.992;14.512;2023-05-08T10:15:28;98872.00;;;16.60;29.17
75039;BME280;63609;49.992;14.512;2023-05-08T10:18:05;98886.88;;;17.28;29.16
75039;BME280;63609;49.992;14.512;2023-05-08T10:20:40;98884.28;;;17.04;30.73
75039;BME280;63609;49.992;14.512;2023-05-08T10:23:21;98884.00;;;17.38;31.21
75039;BME280;63609;49.992;14.512;2023-05-08T10:25:55;98880.03;;;17.57;30.96
75039;BME280;63609;49.992;14.512;2023-05-08T10:28:35;98885.19;;;17.35;29.79
75039;BME280;63609;49.992;14.512;2023-05-08T10:31:06;98884.66;;;16.84;28.33
75039;BME280;63609;49.992;14.512;2023-05-08T10:33:39;98873.34;;;16.97;28.77
75039;BME280;63609;49.992;14.512;2023-05-08T10:36:10;98878.16;;;17.18;29.76
75039;BME280;63609;49.992;14.512;2023-05-08T10:38:41;98875.41;;;17.73;28.54
75039;BME280;63609;49.992;14.512;2023-05-08T10:41:12;98883.13;;;16.98;29.35
75039;BME280;63609;49.992;14.512;2023-05-08T10:43:49;98876.72;;;16.99;28.74
75039;BME280;63609;49.992;14.512;2023-05-08T10:51:54;98870.66;;;18.06;28.43
75039;BME280;63609;49.992;14.512;2023-05-08T10:57:09;98863.78;;;18.64;27.06
75039;BME280;63609;49.992;14.512;2023-05-08T10:59:45;98863.06;;;18.85;25.83
75039;BME280;63609;49.992;14.512;2023-05-08T11:02:27;98863.19;;;17.85;27.78
75039;BME280;63609;49.992;14.512;2023-05-08T11:05:19;98856.75;;;17.16;27.70
75039;BME280;63609;49.992;14.512;2023-05-08T11:07:55;98857.03;;;17.69;28.32
75039;BME280;63609;49.992;14.512;2023-05-08T11:10:30;98855.59;;;18.72;27.45
75039;BME280;63609;49.992;14.512;2023-05-08T11:13:00;98849.28;;;18.95;27.48
75039;BME280;63609;49.992;14.512;2023-05-08T11:15:38;98848.63;;;18.55;26.34
75039;BME280;63609;49.992;14.512;2023-05-08T11:18:10;98851.91;;;19.32;25.48
75039;BME280;63609;49.992;14.512;2023-05-08T11:20:54;98849.47;;;18.93;27.59
75039;BME280;63609;49.992;14.512;2023-05-08T11:23:28;98843.31;;;19.14;26.88
75039;BME280;63609;49.992;14.512;2023-05-08T11:26:05;98845.56;;;19.91;25.27
75039;BME280;63609;49.992;14.512;2023-05-08T11:28:39;98835.59;;;19.62;26.16
75039;BME280;63609;49.992;14.512;2023-05-08T11:31:10;98856.00;;;19.14;26.09
75039;BME280;63609;49.992;14.512;2023-05-08T11:33:38;98845.00;;;19.30;26.25
75039;BME280;63609;49.992;14.512;2023-05-08T11:36:18;98847.88;;;19.14;26.51
75039;BME280;63609;49.992;14.512;2023-05-08T11:39:08;98842.00;;;19.10;25.87
75039;BME280;63609;49.992;14.512;2023-05-08T11:41:38;98840.06;;;19.69;25.53
75039;BME280;63609;49.992;14.512;2023-05-08T11:44:19;98838.81;;;19.21;25.89
75039;BME280;63609;49.992;14.512;2023-05-08T11:49:23;98833.34;;;19.65;26.17
75039;BME280;63609;49.992;14.512;2023-05-08T11:51:57;98837.72;;;19.81;25.23
75039;BME280;63609;49.992;14.512;2023-05-08T11:54:28;98820.81;;;18.99;25.39
75039;BME280;63609;49.992;14.512;2023-05-08T11:56:56;98830.22;;;19.03;26.73
75039;BME280;63609;49.992;14.512;2023-05-08T11:59:26;98828.19;;;19.34;25.50
75039;BME280;63609;49.992;14.512;2023-05-08T12:01:55;98826.47;;;19.48;26.22
75039;BME280;63609;49.992;14.512;2023-05-08T12:04:45;98821.16;;;20.12;25.13
75039;BME280;63609;49.992;14.512;2023-05-08T12:07:14;98825.50;;;19.56;25.23
75039;BME280;63609;49.992;14.512;2023-05-08T12:09:47;98824.75;;;19.26;25.88
75039;BME280;63609;49.992;14.512;2023-05-08T12:12:15;98814.38;;;19.00;26.21
75039;BME280;63609;49.992;14.512;2023-05-08T12:14:47;98815.31;;;18.92;26.12
75039;BME280;63609;49.992;14.512;2023-05-08T12:17:16;98799.25;;;18.76;26.48
75039;BME280;63609;49.992;14.512;2023-05-08T12:19:48;98819.53;;;18.57;27.19
75039;BME280;63609;49.992;14.512;2023-05-08T12:22:21;98816.69;;;18.73;26.74
75039;BME280;63609;49.992;14.512;2023-05-08T12:24:51;98815.84;;;18.73;26.71
75039;BME280;63609;49.992;14.512;2023-05-08T12:27:20;98815.09;;;18.79;27.15
75039;BME280;63609;49.992;14.512;2023-05-08T12:29:50;98822.84;;;18.82;27.54
75039;BME280;63609;49.992;14.512;2023-05-08T12:32:19;98822.69;;;19.79;26.29
75039;BME280;63609;49.992;14.512;2023-05-08T12:34:47;98812.78;;;19.35;26.13
75039;BME280;63609;49.992;14.512;2023-05-08T12:37:23;98819.22;;;19.04;26.62
75039;BME280;63609;49.992;14.512;2023-05-08T12:39:53;98813.72;;;19.99;25.57
75039;BME280;63609;49.992;14.512;2023-05-08T12:42:39;98807.44;;;20.42;24.75
75039;BME280;63609;49.992;14.512;2023-05-08T12:45:07;98803.94;;;19.98;25.45
75039;BME280;63609;49.992;14.512;2023-05-08T12:47:38;98794.38;;;20.24;25.85
75039;BME280;63609;49.992;14.512;2023-05-08T12:50:08;98807.72;;;20.25;26.00
75039;BME280;63609;49.992;14.512;2023-05-08T12:52:39;98805.06;;;20.32;25.50
75039;BME280;63609;49.992;14.512;2023-05-08T12:55:27;98805.16;;;21.01;25.01
75039;BME280;63609;49.992;14.512;2023-05-08T12:58:08;98795.91;;;20.89;25.26
75039;BME280;63609;49.992;14.512;2023-05-08T13:00:47;98792.94;;;20.28;24.51
75039;BME280;63609;49.992;14.512;2023-05-08T13:03:27;98798.91;;;21.48;24.78
75039;BME280;63609;49.992;14.512;2023-05-08T13:05:57;98799.97;;;20.22;25.24
75039;BME280;63609;49.992;14.512;2023-05-08T13:11:01;98792.97;;;20.56;26.04
75039;BME280;63609;49.992;14.512;2023-05-08T13:13:32;98789.88;;;20.59;25.31
75039;BME280;63609;49.992;14.512;2023-05-08T13:16:04;98785.13;;;21.50;24.46
75039;BME280;63609;49.992;14.512;2023-05-08T13:18:32;98786.91;;;21.23;24.26
75039;BME280;63609;49.992;14.512;2023-05-08T13:21:02;98779.56;;;20.26;25.69
75039;BME280;63609;49.992;14.512;2023-05-08T13:23:33;98763.41;;;20.68;24.83
75039;BME280;63609;49.992;14.512;2023-05-08T13:26:01;98776.72;;;21.32;23.25
75039;BME280;63609;49.992;14.512;2023-05-08T13:28:30;98776.41;;;21.81;24.82
75039;BME280;63609;49.992;14.512;2023-05-08T13:30:57;98773.75;;;20.29;24.53
75039;BME280;63609;49.992;14.512;2023-05-08T13:33:29;98764.88;;;21.05;24.95
75039;BME280;63609;49.992;14.512;2023-05-08T13:35:58;98767.44;;;20.50;24.33
75039;BME280;63609;49.992;14.512;2023-05-08T13:38:26;98765.63;;;20.29;24.14
75039;BME280;63609;49.992;14.512;2023-05-08T13:40:54;98766.50;;;20.58;24.25
75039;BME280;63609;49.992;14.512;2023-05-08T13:43:28;98768.00;;;20.67;24.09
75039;BME280;63609;49.992;14.512;2023-05-08T13:45:55;98756.34;;;20.45;24.34
75039;BME280;63609;49.992;14.512;2023-05-08T13:48:22;98764.84;;;20.63;24.05
75039;BME280;63609;49.992;14.512;2023-05-08T13:50:49;98743.81;;;20.16;24.20
75039;BME280;63609;49.992;14.512;2023-05-08T13:53:18;98768.22;;;20.44;25.47